createdAt,value
2018-09-26T00:01:03.619Z,3.10
2018-09-26T00:03:36.041Z,3.40
2018-09-26T00:06:05.467Z,3.27
2018-09-26T00:08:34.600Z,2.47
2018-09-26T00:11:04.975Z,2.77
2018-09-26T00:13:36.378Z,3.03
2018-09-26T00:16:05.819Z,8.23
2018-09-26T00:18:35.036Z,3.40
2018-09-26T00:21:05.064Z,4.60
2018-09-26T00:23:34.189Z,6.23
2018-09-26T00:29:04.758Z,3.77
2018-09-26T00:31:48.032Z,4.27
2018-09-26T00:34:17.343Z,3.53
2018-09-26T00:36:46.512Z,2.53
2018-09-26T00:39:16.624Z,5.57
2018-09-26T00:41:45.711Z,4.77
2018-09-26T00:44:14.840Z,3.50
2018-09-26T00:47:11.525Z,2.60
2018-09-26T00:49:41.174Z,4.43
2018-09-26T00:52:13.573Z,5.60
2018-09-26T00:54:42.610Z,3.23
2018-09-26T00:57:12.096Z,3.93
2018-09-26T00:59:43.207Z,3.10
2018-09-26T01:02:12.154Z,2.17
2018-09-26T01:04:43.078Z,3.57
2018-09-26T01:07:11.985Z,7.03
2018-09-26T01:09:40.933Z,3.13
2018-09-26T01:12:09.996Z,2.53
2018-09-26T01:14:39.029Z,5.47
2018-09-26T01:17:08.037Z,3.03
2018-09-26T01:19:37.585Z,3.90
2018-09-26T01:22:09.826Z,2.43
2018-09-26T01:24:38.966Z,4.23
2018-09-26T01:27:07.979Z,3.70
2018-09-26T01:29:37.140Z,4.73
2018-09-26T01:32:09.239Z,4.23
2018-09-26T01:34:39.053Z,2.50
2018-09-26T01:37:08.978Z,2.47
2018-09-26T01:39:38.295Z,3.37
2018-09-26T01:42:07.327Z,2.60
2018-09-26T01:44:36.158Z,4.97
2018-09-26T01:47:05.565Z,2.93
2018-09-26T01:49:40.532Z,3.90
2018-09-26T01:52:09.643Z,2.07
2018-09-26T01:54:39.162Z,3.30
2018-09-26T01:57:09.266Z,4.13
2018-09-26T01:59:38.337Z,2.23
2018-09-26T02:02:07.400Z,4.00
2018-09-26T02:04:36.417Z,2.53
2018-09-26T02:07:09.574Z,3.23
2018-09-26T02:09:46.622Z,2.77
2018-09-26T02:12:16.629Z,1.87
2018-09-26T02:14:51.075Z,3.90
2018-09-26T02:17:20.173Z,6.87
2018-09-26T02:19:49.121Z,5.63
2018-09-26T02:22:18.337Z,2.87
2018-09-26T02:24:47.494Z,3.97
2018-09-26T02:27:16.559Z,3.13
2018-09-26T02:29:45.546Z,2.90
2018-09-26T02:32:20.266Z,5.40
2018-09-26T02:34:49.395Z,3.40
2018-09-26T02:37:18.342Z,7.87
2018-09-26T02:39:54.392Z,6.97
2018-09-26T02:42:23.258Z,2.90
2018-09-26T02:44:52.304Z,3.00
2018-09-26T02:47:21.306Z,3.20
2018-09-26T02:49:56.303Z,3.10
2018-09-26T02:52:28.903Z,4.07
2018-09-26T02:54:58.911Z,2.30
2018-09-26T02:57:27.873Z,2.70
2018-09-26T03:00:12.777Z,6.07
2018-09-26T03:08:25.562Z,3.60
2018-09-26T03:10:55.947Z,4.70
2018-09-26T03:13:42.811Z,3.60
2018-09-26T03:22:00.715Z,4.73
2018-09-26T03:24:37.044Z,2.77
2018-09-26T03:27:13.662Z,3.93
2018-09-26T03:29:43.154Z,9.40
2018-09-26T03:32:12.084Z,9.00
2018-09-26T03:34:49.900Z,11.17
2018-09-26T03:40:22.607Z,11.57
2018-09-26T03:42:59.315Z,9.60
2018-09-26T03:45:28.424Z,8.60
2018-09-26T03:47:57.573Z,10.10
2018-09-26T03:50:26.441Z,6.93
2018-09-26T03:52:55.568Z,7.10
2018-09-26T03:55:24.675Z,10.60
2018-09-26T03:57:53.560Z,9.40
2018-09-26T04:00:22.622Z,20.47
2018-09-26T04:02:51.572Z,9.37
2018-09-26T04:05:20.564Z,13.80
2018-09-26T04:07:49.917Z,7.97
2018-09-26T04:10:23.851Z,7.53
2018-09-26T04:12:53.366Z,9.80
2018-09-26T04:15:22.285Z,8.37
2018-09-26T04:17:53.279Z,13.10
2018-09-26T04:20:22.295Z,8.53
2018-09-26T04:22:51.416Z,9.93
2018-09-26T04:25:21.243Z,14.03
2018-09-26T04:27:50.163Z,8.43
2018-09-26T04:30:18.990Z,14.03
2018-09-26T04:32:48.045Z,35.00
2018-09-26T04:35:16.965Z,14.83
2018-09-26T04:37:45.828Z,27.50
2018-09-26T04:40:15.224Z,49.77
2018-09-26T04:42:44.259Z,56.57
2018-09-26T04:45:13.216Z,31.87
2018-09-26T04:47:42.443Z,76.63
2018-09-26T04:50:12.363Z,33.20
2018-09-26T04:52:44.216Z,26.50
2018-09-26T04:55:13.172Z,14.87
2018-09-26T04:57:42.181Z,9.03
2018-09-26T05:00:11.296Z,8.77
2018-09-26T05:02:41.912Z,13.00
2018-09-26T05:05:10.792Z,21.90
2018-09-26T05:07:39.714Z,19.37
2018-09-26T05:10:09.200Z,21.63
2018-09-26T05:12:38.206Z,20.83
2018-09-26T05:15:07.695Z,14.03
2018-09-26T05:17:36.516Z,25.57
2018-09-26T05:20:05.765Z,14.07
2018-09-26T05:22:35.274Z,13.17
2018-09-26T05:25:04.441Z,22.50
2018-09-26T05:27:33.601Z,18.70
2018-09-26T05:30:02.950Z,15.67
2018-09-26T05:32:31.804Z,12.17
2018-09-26T05:35:00.710Z,24.57
2018-09-26T05:37:30.032Z,8.37
2018-09-26T05:40:06.091Z,19.83
2018-09-26T05:42:35.183Z,11.67
2018-09-26T05:45:04.207Z,16.07
2018-09-26T05:47:33.311Z,12.17
2018-09-26T05:50:03.536Z,14.70
2018-09-26T05:52:32.736Z,9.63
2018-09-26T05:55:01.782Z,8.13
2018-09-26T05:57:30.776Z,11.53
2018-09-26T05:59:59.711Z,8.43
2018-09-26T06:02:28.986Z,8.20
2018-09-26T06:04:58.450Z,5.20
2018-09-26T06:07:27.330Z,3.30
2018-09-26T06:09:56.378Z,7.67
2018-09-26T06:12:25.722Z,5.43
2018-09-26T06:14:54.564Z,2.80
2018-09-26T06:17:23.565Z,30.10
2018-09-26T06:19:52.634Z,10.80
2018-09-26T06:22:21.718Z,5.90
2018-09-26T06:24:50.620Z,4.17
2018-09-26T06:27:20.699Z,3.50
2018-09-26T06:29:49.542Z,3.07
2018-09-26T06:32:18.435Z,2.47
2018-09-26T06:34:47.418Z,1.83
2018-09-26T06:37:16.419Z,2.60
2018-09-26T06:39:45.187Z,2.00
2018-09-26T06:42:14.369Z,6.83
2018-09-26T06:44:43.309Z,2.67
2018-09-26T06:47:12.172Z,3.73
2018-09-26T06:49:41.257Z,3.40
2018-09-26T06:52:10.303Z,1.70
2018-09-26T06:54:39.276Z,9.20
2018-09-26T06:57:08.347Z,6.77
2018-09-26T06:59:37.231Z,3.17
2018-09-26T07:02:06.102Z,2.23
2018-09-26T07:04:35.873Z,4.40
2018-09-26T07:07:04.841Z,4.40
2018-09-26T07:09:33.861Z,2.40
2018-09-26T07:12:03.257Z,2.67
2018-09-26T07:14:32.221Z,12.00
2018-09-26T07:17:00.975Z,3.73
2018-09-26T07:19:30.037Z,6.03
2018-09-26T07:21:59.502Z,2.20
2018-09-26T07:24:28.509Z,2.17
2018-09-26T07:26:57.658Z,1.97
2018-09-26T07:29:26.652Z,6.57
2018-09-26T07:31:55.667Z,2.83
2018-09-26T07:34:29.826Z,2.30
2018-09-26T07:36:58.805Z,2.30
2018-09-26T07:39:27.642Z,2.70
2018-09-26T07:41:56.540Z,4.57
2018-09-26T07:44:25.472Z,3.27
2018-09-26T07:46:54.526Z,2.87
2018-09-26T07:49:23.685Z,3.70
2018-09-26T07:51:52.805Z,4.33
2018-09-26T07:54:21.906Z,5.97
2018-09-26T07:56:51.310Z,7.53
2018-09-26T07:59:20.206Z,5.20
2018-09-26T08:01:49.213Z,3.23
2018-09-26T08:04:18.393Z,2.63
2018-09-26T08:06:47.160Z,5.13
2018-09-26T08:09:16.287Z,1.70
2018-09-26T08:11:45.478Z,2.20
2018-09-26T08:14:14.386Z,1.90
2018-09-26T08:16:43.485Z,2.60
2018-09-26T08:19:12.561Z,7.10
2018-09-26T08:21:41.555Z,1.97
2018-09-26T08:24:10.615Z,1.53
2018-09-26T08:26:39.900Z,1.70
2018-09-26T08:29:08.855Z,2.07
2018-09-26T08:31:37.851Z,3.93
2018-09-26T08:34:07.353Z,1.63
2018-09-26T08:36:36.248Z,2.10
2018-09-26T08:39:14.386Z,2.87
2018-09-26T08:41:43.299Z,4.00
2018-09-26T08:44:12.317Z,5.20
2018-09-26T08:46:45.364Z,2.73
2018-09-26T08:49:16.397Z,5.40
2018-09-26T08:51:45.784Z,2.63
2018-09-26T08:54:14.719Z,1.93
2018-09-26T08:56:43.668Z,1.63
2018-09-26T08:59:12.876Z,3.00
2018-09-26T09:01:46.409Z,1.60
2018-09-26T09:04:16.275Z,5.47
2018-09-26T09:06:45.767Z,1.87
2018-09-26T09:09:14.752Z,1.53
2018-09-26T09:11:43.736Z,1.43
2018-09-26T09:14:12.807Z,2.17
2018-09-26T09:16:41.853Z,1.60
2018-09-26T09:19:11.524Z,4.80
2018-09-26T09:21:40.410Z,2.43
2018-09-26T09:26:51.811Z,2.07
2018-09-26T09:29:20.996Z,3.30
2018-09-26T09:34:42.958Z,3.50
2018-09-26T09:37:11.996Z,2.47
2018-09-26T09:39:40.950Z,3.47
2018-09-26T09:42:10.251Z,3.03
2018-09-26T09:44:39.233Z,4.23
2018-09-26T09:47:08.270Z,4.00
2018-09-26T09:49:37.594Z,4.53
2018-09-26T09:52:06.697Z,3.07
2018-09-26T09:54:35.641Z,3.40
2018-09-26T09:57:04.724Z,5.80
2018-09-26T09:59:33.711Z,2.10
2018-09-26T10:02:02.584Z,2.70
2018-09-26T10:04:31.707Z,2.20
2018-09-26T10:07:00.432Z,2.80
2018-09-26T10:09:29.398Z,2.40
2018-09-26T10:11:58.577Z,2.03
2018-09-26T10:14:27.727Z,2.37
2018-09-26T10:16:56.656Z,1.13
2018-09-26T10:19:26.899Z,1.70
2018-09-26T10:21:55.642Z,6.83
2018-09-26T10:24:24.481Z,1.90
2018-09-26T10:26:53.500Z,7.13
2018-09-26T10:29:22.370Z,1.83
2018-09-26T10:31:51.261Z,3.53
2018-09-26T10:34:20.341Z,1.83
2018-09-26T10:36:49.037Z,1.53
2018-09-26T10:39:17.869Z,4.03
2018-09-26T10:41:46.717Z,2.73
2018-09-26T10:44:15.517Z,2.60
2018-09-26T10:46:44.326Z,1.90
2018-09-26T10:49:14.563Z,1.53
2018-09-26T10:51:43.356Z,2.33
2018-09-26T10:54:12.219Z,2.77
2018-09-26T10:56:41.456Z,3.10
2018-09-26T10:59:10.323Z,3.97
2018-09-26T11:01:39.150Z,4.07
2018-09-26T11:04:08.712Z,1.90
2018-09-26T11:06:37.552Z,2.07
2018-09-26T11:09:08.409Z,2.23
2018-09-26T11:11:37.313Z,1.60
2018-09-26T11:14:06.223Z,1.30
2018-09-26T11:16:35.005Z,1.40
2018-09-26T11:19:03.873Z,1.47
2018-09-26T11:21:32.752Z,3.50
2018-09-26T11:24:01.689Z,1.70
2018-09-26T11:26:30.589Z,3.23
2018-09-26T11:28:59.419Z,3.80
2018-09-26T11:31:28.624Z,4.97
2018-09-26T11:33:57.512Z,3.67
2018-09-26T11:36:26.257Z,4.40
2018-09-26T11:38:55.555Z,3.00
2018-09-26T11:41:24.767Z,4.83
2018-09-26T11:43:53.619Z,5.83
2018-09-26T11:46:22.852Z,4.77
2018-09-26T11:48:51.668Z,7.23
2018-09-26T11:51:20.498Z,6.33
2018-09-26T11:53:49.537Z,3.53
2018-09-26T11:56:18.443Z,1.50
2018-09-26T11:58:47.219Z,3.70
2018-09-26T12:01:18.224Z,1.50
2018-09-26T12:03:47.087Z,1.63
2018-09-26T12:06:16.125Z,1.33
2018-09-26T12:08:45.021Z,5.77
2018-09-26T12:11:14.997Z,3.43
2018-09-26T12:13:43.858Z,1.93
2018-09-26T12:16:12.861Z,2.47
2018-09-26T12:18:42.072Z,1.23
2018-09-26T12:21:14.022Z,4.10
2018-09-26T12:23:42.960Z,1.70
2018-09-26T12:26:11.916Z,2.70
2018-09-26T12:28:40.788Z,1.13
2018-09-26T12:31:10.039Z,2.57
2018-09-26T12:33:38.927Z,1.00
2018-09-26T12:36:07.827Z,1.33
2018-09-26T12:38:36.782Z,1.23
2018-09-26T12:41:05.654Z,2.17
2018-09-26T12:43:34.384Z,1.50
2018-09-26T12:46:03.990Z,3.27
2018-09-26T12:48:32.992Z,2.03
2018-09-26T12:51:01.666Z,6.57
2018-09-26T12:53:30.658Z,2.27
2018-09-26T12:55:59.483Z,2.40
2018-09-26T12:58:28.352Z,4.43
2018-09-26T13:00:57.630Z,3.00
2018-09-26T13:03:26.519Z,2.07
2018-09-26T13:05:55.282Z,3.03
2018-09-26T13:08:24.128Z,3.03
2018-09-26T13:10:53.054Z,2.53
2018-09-26T13:13:22.188Z,3.03
2018-09-26T13:15:51.114Z,4.50
2018-09-26T13:18:19.986Z,1.60
2018-09-26T13:20:49.031Z,1.80
2018-09-26T13:23:18.246Z,2.30
2018-09-26T13:25:47.383Z,2.70
2018-09-26T13:28:24.286Z,1.33
2018-09-26T13:30:53.083Z,3.77
2018-09-26T13:33:22.101Z,3.00
2018-09-26T13:35:50.943Z,6.23
2018-09-26T13:38:19.794Z,5.00
2018-09-26T13:40:49.155Z,4.17
2018-09-26T13:43:17.997Z,1.97
2018-09-26T13:45:47.029Z,2.30
2018-09-26T13:48:16.096Z,5.97
2018-09-26T13:50:49.378Z,2.83
2018-09-26T13:53:18.292Z,3.03
2018-09-26T13:55:47.429Z,8.50
2018-09-26T13:58:21.093Z,2.00
2018-09-26T14:00:51.804Z,3.23
2018-09-26T14:03:20.890Z,7.70
2018-09-26T14:05:50.272Z,1.47
2018-09-26T14:08:20.054Z,3.20
2018-09-26T14:10:49.883Z,3.27
2018-09-26T14:13:19.403Z,1.93
2018-09-26T14:15:49.356Z,2.50
2018-09-26T14:18:18.726Z,2.30
2018-09-26T14:20:48.125Z,2.40
2018-09-26T14:23:17.988Z,3.03
2018-09-26T14:25:47.273Z,3.23
2018-09-26T14:28:16.524Z,7.57
2018-09-26T14:30:45.845Z,2.07
2018-09-26T14:33:15.234Z,5.63
2018-09-26T14:35:44.349Z,3.50
2018-09-26T14:38:13.926Z,1.33
2018-09-26T14:40:43.196Z,1.73
2018-09-26T14:43:12.453Z,1.20
2018-09-26T14:45:41.866Z,1.10
2018-09-26T14:48:12.169Z,1.10
2018-09-26T14:50:41.350Z,3.40
2018-09-26T14:53:11.345Z,2.40
2018-09-26T14:55:40.544Z,4.40
2018-09-26T14:58:09.819Z,4.57
2018-09-26T15:00:38.983Z,2.43
2018-09-26T15:03:08.336Z,6.10
2018-09-26T15:05:41.593Z,8.20
2018-09-26T15:08:11.244Z,3.23
2018-09-26T15:10:41.549Z,3.47
2018-09-26T15:13:13.908Z,4.13
2018-09-26T15:15:43.125Z,4.10
2018-09-26T15:18:12.452Z,2.80
2018-09-26T15:20:41.834Z,1.97
2018-09-26T15:23:11.200Z,4.03
2018-09-26T15:25:40.635Z,8.93
2018-09-26T15:28:10.061Z,6.03
2018-09-26T15:30:39.378Z,4.20
2018-09-26T15:33:08.930Z,2.07
2018-09-26T15:35:38.400Z,3.33
2018-09-26T15:38:07.778Z,8.70
2018-09-26T15:40:37.294Z,6.10
2018-09-26T15:43:06.685Z,4.27
2018-09-26T15:45:36.010Z,2.87
2018-09-26T15:48:05.332Z,2.87
2018-09-26T15:50:34.672Z,1.43
2018-09-26T15:53:03.910Z,1.90
2018-09-26T15:55:33.524Z,1.90
2018-09-26T15:58:03.345Z,5.07
2018-09-26T16:00:32.515Z,1.80
2018-09-26T16:03:02.095Z,4.00
2018-09-26T16:05:32.315Z,2.67
2018-09-26T16:08:01.719Z,4.33
2018-09-26T16:10:31.930Z,2.00
2018-09-26T16:13:01.431Z,3.57
2018-09-26T16:15:32.093Z,5.23
2018-09-26T16:18:02.580Z,2.70
2018-09-26T16:20:32.278Z,4.37
2018-09-26T16:23:02.141Z,1.97
2018-09-26T16:25:31.500Z,2.03
2018-09-26T16:28:02.459Z,2.33
2018-09-26T16:30:32.529Z,4.87
2018-09-26T16:33:02.172Z,3.73
2018-09-26T16:35:32.493Z,1.70
2018-09-26T16:38:02.572Z,2.40
2018-09-26T16:40:32.854Z,3.13
2018-09-26T16:43:03.041Z,4.43
2018-09-26T16:45:33.919Z,3.43
2018-09-26T16:48:05.206Z,4.43
2018-09-26T16:50:34.966Z,1.43
2018-09-26T16:53:05.261Z,6.43
2018-09-26T16:55:35.064Z,3.07
2018-09-26T16:58:04.774Z,2.40
2018-09-26T17:00:51.650Z,3.13
2018-09-26T17:03:21.375Z,4.87
2018-09-26T17:05:52.760Z,1.83
2018-09-26T17:08:23.394Z,3.90
2018-09-26T17:10:54.801Z,2.20
2018-09-26T17:13:26.778Z,3.90
2018-09-26T17:15:56.290Z,2.07
2018-09-26T17:18:26.866Z,1.97
2018-09-26T17:20:57.726Z,6.37
2018-09-26T17:23:27.173Z,1.53
2018-09-26T17:26:00.463Z,1.80
2018-09-26T17:28:31.530Z,4.60
2018-09-26T17:31:01.242Z,2.03
2018-09-26T17:33:31.152Z,2.90
2018-09-26T17:36:01.449Z,4.73
2018-09-26T17:38:31.054Z,2.50
2018-09-26T17:41:01.030Z,6.87
2018-09-26T17:43:31.772Z,2.23
2018-09-26T17:46:02.313Z,1.47
2018-09-26T17:48:33.771Z,2.50
2018-09-26T17:51:04.426Z,3.47
2018-09-26T17:53:33.992Z,3.73
2018-09-26T17:56:04.370Z,1.70
2018-09-26T17:58:34.950Z,1.60
2018-09-26T18:01:04.398Z,4.43
2018-09-26T18:03:34.938Z,2.97
2018-09-26T18:06:04.415Z,5.07
2018-09-26T18:08:33.722Z,4.63
2018-09-26T18:11:03.981Z,7.37
2018-09-26T18:13:41.140Z,7.27
2018-09-26T18:16:10.481Z,3.40
2018-09-26T18:18:43.014Z,4.77
2018-09-26T18:21:13.110Z,6.73
2018-09-26T18:23:42.991Z,8.63
2018-09-26T18:26:13.711Z,5.70
2018-09-26T18:28:43.351Z,6.40
2018-09-26T18:31:12.940Z,14.37
2018-09-26T18:33:42.470Z,11.10
2018-09-26T18:36:12.456Z,14.03
2018-09-26T18:38:42.151Z,14.70
2018-09-26T18:41:12.927Z,20.70
2018-09-26T18:43:42.739Z,16.83
2018-09-26T18:46:12.653Z,21.50
2018-09-26T18:48:42.206Z,22.07
2018-09-26T18:51:12.989Z,29.07
2018-09-26T18:53:42.385Z,19.47
2018-09-26T18:56:11.760Z,26.30
2018-09-26T18:58:42.155Z,26.83
2018-09-26T19:01:11.532Z,18.13
2018-09-26T19:03:40.868Z,18.50
2018-09-26T19:06:10.600Z,13.47
2018-09-26T19:08:40.426Z,11.43
2018-09-26T19:11:10.345Z,10.50
2018-09-26T19:13:39.778Z,9.53
2018-09-26T19:16:11.957Z,13.43
2018-09-26T19:18:42.680Z,13.33
2018-09-26T19:21:15.983Z,13.13
2018-09-26T19:23:45.715Z,9.87
2018-09-26T19:26:15.745Z,8.10
2018-09-26T19:28:45.895Z,6.37
2018-09-26T19:31:15.936Z,7.67
2018-09-26T19:33:47.241Z,10.33
2018-09-26T19:36:17.114Z,7.57
2018-09-26T19:38:48.523Z,4.83
2018-09-26T19:41:18.484Z,8.93
2018-09-26T19:43:50.392Z,4.10
2018-09-26T19:46:19.936Z,8.53
2018-09-26T19:48:50.729Z,6.27
2018-09-26T19:51:20.744Z,8.37
2018-09-26T19:53:52.261Z,16.17
2018-09-26T19:56:26.602Z,7.10
2018-09-26T19:58:57.360Z,6.23
2018-09-26T20:01:28.056Z,8.93
2018-09-26T20:04:16.140Z,6.93
2018-09-26T20:10:27.680Z,6.30
2018-09-26T20:12:58.446Z,8.53
2018-09-26T20:15:28.213Z,6.73
2018-09-26T20:17:58.512Z,5.90
2018-09-26T20:20:28.138Z,5.20
2018-09-26T20:22:57.653Z,8.67
2018-09-26T20:25:27.043Z,8.00
2018-09-26T20:27:58.787Z,7.67
2018-09-26T20:30:30.988Z,8.17
2018-09-26T20:33:00.867Z,7.43
2018-09-26T20:35:33.693Z,4.43
2018-09-26T20:38:03.847Z,8.67
2018-09-26T20:40:34.627Z,5.43
2018-09-26T20:43:05.122Z,6.73
2018-09-26T20:45:35.590Z,3.87
2018-09-26T20:48:06.598Z,3.87
2018-09-26T20:50:36.544Z,5.80
2018-09-26T20:53:06.129Z,4.03
2018-09-26T20:55:38.251Z,4.37
2018-09-26T20:58:09.723Z,4.03
2018-09-26T21:00:39.545Z,8.43
2018-09-26T21:03:09.472Z,4.37
2018-09-26T21:05:41.659Z,5.30
2018-09-26T21:08:12.138Z,5.67
2018-09-26T21:10:43.763Z,6.93
2018-09-26T21:13:14.179Z,3.93
2018-09-26T21:15:45.246Z,3.50
2018-09-26T21:18:15.190Z,22.77
2018-09-26T21:20:45.112Z,23.27
2018-09-26T21:23:16.475Z,4.37
2018-09-26T21:25:47.604Z,2.57
2018-09-26T21:28:18.316Z,7.27
2018-09-26T21:30:49.529Z,4.70
2018-09-26T21:33:19.093Z,3.37
2018-09-26T21:35:48.849Z,5.67
2018-09-26T21:38:18.369Z,5.60
2018-09-26T21:40:47.816Z,8.23
2018-09-26T21:43:17.352Z,4.10
2018-09-26T21:45:47.449Z,3.93
2018-09-26T21:48:17.016Z,4.63
2018-09-26T21:50:46.633Z,4.80
2018-09-26T21:53:16.922Z,6.60
2018-09-26T21:55:46.841Z,4.77
2018-09-26T21:58:17.486Z,4.73
2018-09-26T22:00:51.835Z,8.30
2018-09-26T22:03:22.473Z,8.43
2018-09-26T22:05:51.728Z,5.97
2018-09-26T22:08:21.400Z,4.83
2018-09-26T22:10:51.600Z,6.07
2018-09-26T22:13:21.046Z,6.67
2018-09-26T22:15:50.573Z,10.57
2018-09-26T22:18:20.103Z,8.60
2018-09-26T22:20:49.377Z,10.07
2018-09-26T22:23:19.867Z,8.37
2018-09-26T22:25:49.447Z,17.10
2018-09-26T22:28:19.678Z,16.17
2018-09-26T22:30:49.138Z,15.13
2018-09-26T22:33:18.736Z,11.97
2018-09-26T22:35:48.078Z,8.80
2018-09-26T22:38:17.259Z,7.53
2018-09-26T22:40:46.965Z,7.20
2018-09-26T22:43:16.185Z,9.17
2018-09-26T22:45:45.417Z,9.60
2018-09-26T22:48:15.260Z,8.50
2018-09-26T22:50:44.542Z,11.60
2018-09-26T22:53:13.815Z,9.23
2018-09-26T22:55:43.106Z,7.47
2018-09-26T22:58:12.375Z,10.00
2018-09-26T23:00:41.773Z,8.07
2018-09-26T23:03:11.023Z,8.90
2018-09-26T23:05:40.165Z,10.80
2018-09-26T23:08:09.255Z,12.23
2018-09-26T23:10:38.901Z,11.73
2018-09-26T23:13:08.076Z,11.47
2018-09-26T23:15:37.177Z,12.03
2018-09-26T23:18:06.483Z,10.63
2018-09-26T23:20:35.502Z,15.83
2018-09-26T23:23:04.669Z,12.77
2018-09-26T23:25:34.157Z,9.97
2018-09-26T23:28:03.193Z,19.63
2018-09-26T23:30:32.393Z,11.13
2018-09-26T23:33:01.736Z,10.37
2018-09-26T23:35:30.918Z,10.40
2018-09-26T23:37:59.997Z,10.23
2018-09-26T23:40:29.517Z,9.70
2018-09-26T23:43:02.107Z,9.27
2018-09-26T23:45:31.252Z,7.10
2018-09-26T23:48:00.253Z,7.30
2018-09-26T23:50:30.310Z,8.17
2018-09-26T23:52:59.570Z,10.43
2018-09-26T23:55:28.650Z,10.97
2018-09-26T23:57:57.847Z,8.23
